NTL weather

Newcastle Airport
Williamtown, New South Wales, Australia

Public forecast

Using degrees Celsius for public forecast. Weather courtesy of forecast.io.

Current aviation weather report (METAR) for Newcastle Airport

Retrieved 2019/10/22 16:30 UTC (0 seconds ago):

YWLM 221630Z AUTO 07006KT 9999 // NCD 17/15 Q1022

Aviation forecast (TAF) for Newcastle Airport

Retrieved 2019/10/22 12:36 UTC (3 hours ago):

TAF TAF YWLM 221104Z 2212/2312 05005KT CAVOK FM222100 02008KT CAVOK FM230300 07013KT CAVOK FM231000 03007KT CAVOK PROB30 2218/2220 4000 BR FEW002